Weather at Rørvik Airport, Ryum

Public forecast

Using degrees Celsius for public forecast. Weather courtesy of forecast.io.

Current aviation weather report (METAR) for Rørvik Airport, Ryum

Report is more than 6 hours old.

2022/11/14 15:20 (retrieved 2 years ago)

ENRM 141520Z AUTO 04005KT 010V070 2000 DZBR VV004 07/07 Q1021

Closest aviation forecast (TAF) to Rørvik Airport, Ryum

Forecast is more than 12 hours old.

Closest forecast is Ørland Airport, 79.3 nm (146.9 km) SSW.

2023/02/22 18:36 (retrieved 1 year ago)

TAF ENOL 221700Z 2218/2318 26015KT 9999 -RA BKN040 TEMPO 2218/2223 4000 RADZ BKN012 TEMPO 2300/2312 27022G32KT SCT020CB BKN030 TEMPO 2301/2313 1200 SHSNRA VV007 BECMG 2314/2317 14012KT